Time;durP1;ratioP1;P1;durP2;ratioP2;P2;SDS_P1;SDS_P2;PMS_P1;PMS_P2;Temp;Humidity;BMP_temperature;BMP_pressure;BME280_temperature;BME280_humidity;BME280_pressure;Samples;Min_cycle;Max_cycle;Signal;HPM_P1;HPM_P2
2022/01/12 00:00:15;;;;;;;7.10;4.15;;;;;;;-2.33;65.44;95972.72;5087853;28;20035;-78
2022/01/12 00:02:40;;;;;;;6.85;4.28;;;;;;;-2.26;65.41;95979.38;5090977;28;20024;-78
2022/01/12 00:05:06;;;;;;;8.98;4.25;;;;;;;-2.32;65.75;95974.44;5089940;28;20028;-78
2022/01/12 00:07:31;;;;;;;7.03;3.72;;;;;;;-2.41;66.35;95966.13;5088834;28;20025;-77
2022/01/12 00:09:57;;;;;;;8.32;4.43;;;;;;;-2.31;65.60;95968.25;5086367;28;20483;-78
2022/01/12 00:12:22;;;;;;;8.45;4.65;;;;;;;-2.25;65.73;95973.16;5086487;28;20024;-77
2022/01/12 00:14:47;;;;;;;9.18;4.65;;;;;;;-2.21;66.23;95977.34;5085336;28;20023;-77
2022/01/12 00:17:13;;;;;;;8.68;4.78;;;;;;;-2.17;65.18;95988.50;5085034;28;20071;-77
2022/01/12 00:19:38;;;;;;;7.40;4.07;;;;;;;-2.17;65.69;95986.72;5086050;28;20584;-78
2022/01/12 00:22:04;;;;;;;10.35;4.20;;;;;;;-2.19;65.57;95993.84;5085028;28;20078;-78
2022/01/12 00:24:50;;;;;;;9.48;4.50;;;;;;;-2.11;65.42;95989.03;5086336;28;20448;-77
2022/01/12 00:35:26;;;;;;;8.32;3.80;;;;;;;-2.03;64.46;96004.38;5090129;28;20123;-78
2022/01/12 00:37:52;;;;;;;6.07;4.13;;;;;;;-2.04;64.62;96000.06;5090111;28;20024;-79
2022/01/12 00:40:17;;;;;;;8.88;4.40;;;;;;;-2.02;64.51;95994.69;5090143;28;20314;-78
2022/01/12 00:42:43;;;;;;;10.57;4.30;;;;;;;-2.19;65.19;96000.91;5089967;28;20129;-78
2022/01/12 00:45:09;;;;;;;6.85;3.80;;;;;;;-2.18;64.88;95997.34;5088764;28;20031;-78
2022/01/12 00:47:34;;;;;;;8.90;4.97;;;;;;;-2.16;64.97;95995.47;5088222;28;20115;-78
2022/01/12 00:50:00;;;;;;;9.80;5.15;;;;;;;-2.15;65.12;96002.41;5090001;28;20028;-79
2022/01/12 00:52:25;;;;;;;8.88;4.60;;;;;;;-2.19;65.37;95999.09;5089919;28;20039;-78
2022/01/12 00:54:50;;;;;;;7.18;3.40;;;;;;;-2.24;65.22;95993.25;5089885;28;20031;-77
2022/01/12 00:57:16;;;;;;;9.15;4.97;;;;;;;-2.12;64.82;95991.72;5089410;28;20035;-77
2022/01/12 00:59:41;;;;;;;8.43;4.93;;;;;;;-2.09;64.60;95998.59;5089853;28;20031;-78
2022/01/12 01:02:07;;;;;;;10.20;4.35;;;;;;;-2.07;64.40;95988.84;5088366;28;20043;-77
2022/01/12 01:04:32;;;;;;;6.35;3.83;;;;;;;-2.03;64.03;95995.66;5089402;28;20406;-77
2022/01/12 01:06:57;;;;;;;7.93;4.20;;;;;;;-2.07;63.69;95991.47;5088241;28;20474;-77
2022/01/12 01:09:23;;;;;;;5.82;3.53;;;;;;;-2.11;64.14;95986.38;5089648;28;20525;-77
2022/01/12 01:11:49;;;;;;;8.07;4.00;;;;;;;-2.05;63.55;95992.25;5071716;28;20035;-77
2022/01/12 01:14:33;;;;;;;5.38;3.45;;;;;;;-2.10;62.94;95987.25;5088055;28;20048;-77
2022/01/12 01:25:32;;;;;;;8.00;3.45;;;;;;;-2.23;63.79;95997.59;5089357;28;20112;-77
2022/01/12 01:28:00;;;;;;;4.88;3.10;;;;;;;-2.31;63.75;96005.03;5088680;28;20361;-78
2022/01/12 01:30:26;;;;;;;6.47;3.25;;;;;;;-2.32;63.14;96000.72;5089165;28;20063;-78
2022/01/12 01:32:52;;;;;;;5.78;3.08;;;;;;;-2.44;63.48;95994.34;5087582;28;20513;-77
2022/01/12 01:35:19;;;;;;;7.75;3.78;;;;;;;-2.42;63.57;95998.56;5087572;28;20031;-78
2022/01/12 01:37:45;;;;;;;5.70;3.53;;;;;;;-2.37;63.14;95999.19;5089099;28;20505;-78
2022/01/12 01:40:11;;;;;;;6.32;3.42;;;;;;;-2.37;63.19;95998.34;5070554;28;20027;-77
2022/01/12 01:53:47;;;;;;;6.88;3.95;;;;;;;-2.47;63.28;96015.53;5087325;28;20493;-78
2022/01/12 01:56:13;;;;;;;6.10;3.45;;;;;;;-2.56;63.45;96014.25;5089134;28;20024;-78
2022/01/12 01:58:39;;;;;;;6.75;3.50;;;;;;;-2.49;62.88;96013.84;5088812;28;20028;-77
2022/01/12 02:01:04;;;;;;;6.60;3.72;;;;;;;-2.45;63.56;96019.75;5086823;28;20448;-78
2022/01/12 02:03:30;;;;;;;7.28;3.63;;;;;;;-2.42;62.85;96016.97;5087674;28;20059;-79
2022/01/12 02:05:56;;;;;;;7.50;3.80;;;;;;;-2.30;62.36;96019.84;5087429;28;20020;-78
2022/01/12 02:08:21;;;;;;;5.20;3.47;;;;;;;-2.37;62.88;96020.19;5087223;28;20380;-78
2022/01/12 02:10:51;;;;;;;6.28;3.35;;;;;;;-2.32;62.28;96021.75;5070024;28;20505;-78
2022/01/12 02:13:16;;;;;;;6.18;3.17;;;;;;;-2.30;61.87;96019.84;5086974;28;20110;-79
2022/01/12 02:15:45;;;;;;;6.25;3.45;;;;;;;-2.29;62.08;96029.47;5087692;28;20077;-77
2022/01/12 02:40:22;;;;;;;5.85;3.60;;;;;;;-2.41;60.62;96055.47;5086843;28;20085;-77
2022/01/12 02:42:57;;;;;;;5.25;3.25;;;;;;;-2.44;61.14;96060.03;5086894;28;20016;-77
2022/01/12 02:51:07;;;;;;;5.28;3.00;;;;;;;-2.50;60.97;96066.47;5087504;28;20039;-77
2022/01/12 02:53:42;;;;;;;4.90;2.78;;;;;;;-2.57;61.20;96062.44;5087236;28;20036;-77
2022/01/12 02:56:09;;;;;;;5.53;2.60;;;;;;;-2.59;60.60;96077.41;5087450;28;20514;-78
2022/01/12 02:58:35;;;;;;;7.63;3.45;;;;;;;-2.56;61.25;96072.88;5086385;28;20042;-77
2022/01/12 03:03:29;;;;;;;5.90;3.38;;;;;;;-2.71;61.10;96076.28;5085300;28;20047;-78
2022/01/12 03:05:58;;;;;;;5.93;2.83;;;;;;;-2.80;61.24;96094.22;5086169;28;20020;-77
2022/01/12 03:08:25;;;;;;;5.45;3.22;;;;;;;-2.79;61.58;96084.56;5086009;28;20379;-78
2022/01/12 03:10:51;;;;;;;8.27;4.15;;;;;;;-2.89;61.32;96084.19;5085845;28;20604;-78
2022/01/12 03:13:16;;;;;;;7.45;3.15;;;;;;;-2.79;60.98;96081.94;5068795;28;20032;-78
2022/01/12 03:15:42;;;;;;;5.93;3.15;;;;;;;-2.84;60.33;96105.81;5085519;28;20031;-77
2022/01/12 03:18:07;;;;;;;7.45;3.53;;;;;;;-2.81;60.97;96089.03;5086385;28;20132;-76
2022/01/12 03:20:33;;;;;;;5.85;3.20;;;;;;;-2.79;60.69;96087.19;5068090;28;20040;-79
2022/01/12 03:22:59;;;;;;;5.80;3.33;;;;;;;-2.67;60.75;96086.56;5087040;28;20038;-78
2022/01/12 03:25:24;;;;;;;6.13;3.25;;;;;;;-2.74;61.06;96100.94;5086602;28;20080;-77
2022/01/12 03:27:50;;;;;;;7.85;3.90;;;;;;;-2.69;60.39;96092.84;5087132;28;20551;-77
2022/01/12 03:30:16;;;;;;;5.90;3.65;;;;;;;-2.70;61.23;96093.75;5086905;28;20020;-77
2022/01/12 03:32:49;;;;;;;6.15;3.00;;;;;;;-2.80;61.44;96102.09;5086698;28;20085;-78
2022/01/12 04:08:19;;;;;;;5.95;3.40;;;;;;;-2.51;60.45;96139.16;5091039;28;20463;-77
2022/01/12 04:10:44;;;;;;;5.80;3.45;;;;;;;-2.61;59.99;96138.78;5090849;28;20462;-77
2022/01/12 04:13:10;;;;;;;8.35;3.72;;;;;;;-2.65;60.74;96146.88;5089208;28;20100;-76
2022/01/12 04:15:35;;;;;;;5.68;3.30;;;;;;;-2.64;60.89;96149.44;5089997;28;20035;-77
2022/01/12 04:18:01;;;;;;;7.93;3.70;;;;;;;-2.63;60.86;96147.66;5090663;28;20024;-78
2022/01/12 04:20:26;;;;;;;6.53;3.28;;;;;;;-2.59;60.97;96151.81;5072429;28;20510;-77
2022/01/12 04:25:35;;;;;;;6.53;3.53;;;;;;;-2.50;60.39;96161.03;5088909;28;20118;-78
2022/01/12 04:28:01;;;;;;;6.35;3.80;;;;;;;-2.50;60.47;96168.91;5090400;28;20023;-78
2022/01/12 04:30:26;;;;;;;8.80;5.18;;;;;;;-2.48;60.53;96174.91;5089960;28;20020;-77
2022/01/12 04:32:52;;;;;;;8.10;3.97;;;;;;;-2.43;60.48;96172.06;5088749;28;20042;-78
2022/01/12 04:35:23;;;;;;;6.05;3.53;;;;;;;-2.37;60.37;96175.22;5088554;28;20553;-79
2022/01/12 04:37:48;;;;;;;7.45;3.80;;;;;;;-2.33;60.32;96172.44;5088575;28;20111;-78
2022/01/12 04:40:14;;;;;;;8.10;4.20;;;;;;;-2.29;59.83;96171.38;5090064;28;20047;-77
2022/01/12 04:42:39;;;;;;;7.18;4.28;;;;;;;-2.27;60.19;96182.63;5089704;28;20027;-78
2022/01/12 04:45:32;;;;;;;6.75;4.15;;;;;;;-2.27;59.92;96172.13;5089902;28;20027;-78
2022/01/12 04:48:02;;;;;;;5.55;3.60;;;;;;;-2.19;59.60;96183.09;5089634;28;20523;-78
2022/01/12 04:50:29;;;;;;;9.02;5.13;;;;;;;-2.27;60.04;96182.63;5089875;28;20024;-79
2022/01/12 04:52:54;;;;;;;7.53;4.55;;;;;;;-2.26;60.07;96185.16;5089511;28;20020;-77
2022/01/12 04:55:20;;;;;;;8.40;5.22;;;;;;;-2.28;60.15;96178.31;5089616;28;20020;-81
2022/01/12 04:57:45;;;;;;;11.38;4.45;;;;;;;-2.16;60.09;96190.81;5089282;28;20039;-77
2022/01/12 05:00:17;;;;;;;7.50;4.18;;;;;;;-2.13;59.74;96192.44;5089677;28;20035;-78
2022/01/12 05:13:32;;;;;;;9.35;4.97;;;;;;;-2.11;59.59;96207.19;5088272;28;20109;-78
2022/01/12 05:15:58;;;;;;;8.52;4.22;;;;;;;-2.15;60.05;96210.94;5089167;28;20479;-78
2022/01/12 05:18:24;;;;;;;9.48;4.43;;;;;;;-2.15;59.88;96217.94;5070649;28;20032;-78
2022/01/12 05:20:49;;;;;;;9.07;4.78;;;;;;;-2.15;59.66;96218.81;5087689;28;20406;-77
2022/01/12 05:23:14;;;;;;;9.65;5.22;;;;;;;-2.08;59.67;96221.94;5088059;28;20031;-79
2022/01/12 05:25:40;;;;;;;11.73;6.03;;;;;;;-2.15;60.11;96224.06;5087704;28;20085;-77
2022/01/12 05:28:06;;;;;;;9.02;5.53;;;;;;;-2.14;60.42;96228.38;5070774;28;20039;-81
2022/01/12 05:30:32;;;;;;;10.85;5.65;;;;;;;-2.13;60.35;96230.06;5070933;28;20093;-80
2022/01/12 05:32:58;;;;;;;10.13;6.10;;;;;;;-2.07;60.22;96233.31;5088617;28;20569;-79
2022/01/12 05:35:30;;;;;;;11.93;5.57;;;;;;;-2.03;60.19;96243.59;5088584;28;20032;-77
2022/01/12 05:37:56;;;;;;;11.05;5.53;;;;;;;-1.97;59.70;96239.81;5087565;28;20097;-77
2022/01/12 05:40:21;;;;;;;9.40;5.03;;;;;;;-2.01;60.24;96240.91;5088860;28;20024;-79
2022/01/12 05:42:48;;;;;;;10.13;5.53;;;;;;;-2.01;60.54;96240.91;5088729;28;20031;-78
2022/01/12 05:45:15;;;;;;;9.15;5.20;;;;;;;-1.98;59.83;96251.25;5089003;28;20060;-78
2022/01/12 05:50:09;;;;;;;8.07;4.88;;;;;;;-1.96;60.53;96240.66;5087337;28;20028;-78
2022/01/12 05:52:34;;;;;;;7.80;5.28;;;;;;;-1.88;60.84;96252.50;5087112;28;20035;-78
2022/01/12 05:55:02;;;;;;;10.90;5.80;;;;;;;-1.83;60.66;96254.88;5087014;28;20021;-77
2022/01/12 05:57:29;;;;;;;9.35;5.47;;;;;;;-1.79;60.57;96255.56;5088302;28;20115;-78
2022/01/12 05:59:55;;;;;;;8.80;5.32;;;;;;;-1.68;60.88;96269.03;5088679;28;20031;-78
2022/01/12 06:02:21;;;;;;;10.82;4.95;;;;;;;-1.68;60.52;96263.75;5088196;28;20032;-79
2022/01/12 06:04:46;;;;;;;7.68;4.82;;;;;;;-1.60;60.04;96278.28;5087217;28;20028;-77
2022/01/12 06:07:12;;;;;;;9.82;5.55;;;;;;;-1.51;60.22;96286.53;5088136;28;20434;-77
2022/01/12 06:09:37;;;;;;;8.15;4.95;;;;;;;-1.43;59.30;96282.63;5088273;28;20024;-77
2022/01/12 06:12:03;;;;;;;8.32;5.40;;;;;;;-1.26;58.63;96289.66;5087812;28;20345;-79
2022/01/12 06:14:29;;;;;;;8.23;4.97;;;;;;;-1.41;58.84;96294.78;5087627;28;20103;-77
2022/01/12 06:16:55;;;;;;;11.20;5.95;;;;;;;-1.51;58.86;96290.94;5088098;28;20028;-78
2022/01/12 06:19:20;;;;;;;10.32;5.30;;;;;;;-1.63;58.38;96295.91;5087604;28;20040;-79
2022/01/12 06:21:46;;;;;;;9.07;5.05;;;;;;;-1.46;57.97;96306.47;5086452;28;20031;-78
2022/01/12 06:24:11;;;;;;;12.27;6.07;;;;;;;-1.44;57.00;96305.50;5087679;28;20028;-80
2022/01/12 06:26:37;;;;;;;9.05;4.93;;;;;;;-1.53;57.36;96308.59;5069532;28;20028;-78
2022/01/12 06:31:35;;;;;;;14.13;5.82;;;;;;;-1.48;57.11;96317.09;5086698;28;20032;-78
2022/01/12 06:34:00;;;;;;;10.77;5.18;;;;;;;-1.52;57.53;96311.16;5086683;28;20032;-78
2022/01/12 06:36:26;;;;;;;9.18;4.90;;;;;;;-1.39;57.32;96324.50;5087276;28;20098;-78
2022/01/12 06:38:51;;;;;;;13.98;6.18;;;;;;;-1.29;56.85;96324.88;5088472;28;20496;-78
2022/01/12 06:41:17;;;;;;;12.40;6.32;;;;;;;-1.21;56.38;96323.63;5086018;28;20297;-78
2022/01/12 06:43:42;;;;;;;10.75;5.97;;;;;;;-1.16;55.74;96332.97;5086271;28;20024;-78
2022/01/12 06:46:08;;;;;;;16.02;6.47;;;;;;;-1.31;56.22;96329.38;5086525;28;20036;-79
2022/01/12 06:48:34;;;;;;;11.65;5.53;;;;;;;-1.23;55.80;96339.50;5085943;28;20486;-77
2022/01/12 06:51:00;;;;;;;9.18;4.75;;;;;;;-1.25;55.63;96343.97;5086003;28;20016;-78
2022/01/12 06:53:25;;;;;;;10.63;4.35;;;;;;;-1.35;55.63;96342.78;5086957;28;20105;-78
2022/01/12 06:55:50;;;;;;;9.13;4.63;;;;;;;-1.43;56.20;96333.50;5087355;28;20076;-78
2022/01/12 06:58:16;;;;;;;8.10;5.25;;;;;;;-1.45;56.38;96334.53;5086929;28;20497;-79
2022/01/12 07:00:41;;;;;;;6.82;4.53;;;;;;;-1.56;56.18;96346.44;5086950;28;20040;-78
2022/01/12 07:03:07;;;;;;;8.23;3.75;;;;;;;-1.56;55.76;96356.09;5086367;28;20049;-78
2022/01/12 07:05:32;;;;;;;7.75;4.22;;;;;;;-1.46;55.82;96354.72;5085815;28;20506;-78
2022/01/12 07:07:58;;;;;;;9.73;4.35;;;;;;;-1.46;56.48;96362.59;5087284;28;20020;-78
2022/01/12 07:10:24;;;;;;;8.27;4.65;;;;;;;-1.48;55.75;96361.81;5086913;28;20027;-78
2022/01/12 07:12:50;;;;;;;14.68;5.18;;;;;;;-1.68;55.79;96363.72;5085526;28;20056;-78
2022/01/12 07:15:15;;;;;;;12.70;5.55;;;;;;;-1.44;55.72;96365.16;5068525;28;20107;-78
2022/01/12 07:17:42;;;;;;;11.32;5.07;;;;;;;-1.10;55.59;96373.06;5084392;28;20051;-79
2022/01/12 07:20:08;;;;;;;12.18;5.40;;;;;;;-0.84;54.77;96368.19;5086426;28;20052;-78
2022/01/12 07:22:34;;;;;;;9.85;5.18;;;;;;;-0.69;53.67;96372.63;5084868;28;20035;-79
2022/01/12 07:24:59;;;;;;;10.32;4.75;;;;;;;-0.61;54.21;96374.81;5086643;28;20478;-78
2022/01/12 07:27:24;;;;;;;12.95;5.47;;;;;;;-0.58;53.46;96377.28;5085078;28;20027;-78
2022/01/12 07:29:50;;;;;;;9.20;5.20;;;;;;;-0.27;53.43;96378.22;5086683;28;20024;-78
2022/01/12 07:32:15;;;;;;;10.93;5.97;;;;;;;0.06;52.42;96381.69;5086517;28;20028;-79
2022/01/12 07:34:41;;;;;;;8.70;4.50;;;;;;;0.26;50.86;96377.00;5085243;28;20016;-77
2022/01/12 07:37:06;;;;;;;9.02;4.10;;;;;;;0.41;51.07;96377.91;5086393;28;20325;-78
2022/01/12 07:39:32;;;;;;;8.27;4.38;;;;;;;0.48;51.20;96373.13;5086139;28;20020;-78
2022/01/12 07:41:57;;;;;;;7.70;4.63;;;;;;;0.49;49.52;96374.81;5085259;28;20317;-78
2022/01/12 07:44:23;;;;;;;8.82;4.22;;;;;;;0.67;48.98;96377.31;5086197;28;20535;-78
2022/01/12 07:46:48;;;;;;;8.40;3.97;;;;;;;0.81;49.34;96376.47;5086175;28;20043;-77
2022/01/12 07:49:13;;;;;;;8.07;4.28;;;;;;;0.92;48.21;96375.84;5086535;28;20406;-77
2022/01/12 07:51:39;;;;;;;7.43;4.70;;;;;;;1.06;48.26;96389.03;5086129;28;20528;-78
2022/01/12 07:54:04;;;;;;;7.88;4.93;;;;;;;1.15;48.77;96387.63;5084839;28;20037;-78
2022/01/12 07:56:30;;;;;;;6.38;4.25;;;;;;;1.25;47.98;96387.03;5086241;28;20050;-76
2022/01/12 07:58:55;;;;;;;9.07;4.53;;;;;;;1.41;47.91;96393.06;5086166;28;20422;-77
2022/01/12 08:01:21;;;;;;;6.65;4.13;;;;;;;1.52;46.27;96397.69;5086120;28;20529;-78
2022/01/12 08:03:46;;;;;;;6.82;4.35;;;;;;;1.63;46.29;96409.41;5086408;28;20024;-77
2022/01/12 08:06:11;;;;;;;8.15;4.70;;;;;;;1.67;46.06;96408.25;5086186;28;20024;-77
2022/01/12 08:08:37;;;;;;;9.10;4.47;;;;;;;1.79;45.69;96411.91;5085875;28;20126;-78
2022/01/12 08:11:02;;;;;;;7.13;4.13;;;;;;;1.52;45.25;96420.63;5084738;28;20024;-77
2022/01/12 08:13:28;;;;;;;6.22;3.80;;;;;;;1.57;45.07;96418.53;5086039;28;20024;-78
2022/01/12 08:15:53;;;;;;;7.93;3.88;;;;;;;1.58;45.00;96420.25;5085593;28;20035;-78
2022/01/12 08:18:19;;;;;;;7.22;3.60;;;;;;;1.18;45.36;96424.44;5086202;28;20050;-77
2022/01/12 08:20:44;;;;;;;8.13;4.07;;;;;;;0.98;46.21;96429.13;5085629;28;20441;-77
2022/01/12 08:23:09;;;;;;;5.50;3.30;;;;;;;0.56;47.00;96425.47;5085917;28;20089;-79
2022/01/12 08:25:39;;;;;;;6.03;3.50;;;;;;;0.56;47.04;96426.34;5084791;28;20031;-78
2022/01/12 08:28:07;;;;;;;7.38;3.72;;;;;;;0.58;47.78;96420.97;5086050;28;20024;-77
2022/01/12 08:30:34;;;;;;;7.57;3.65;;;;;;;0.75;47.40;96427.88;5085861;28;20051;-78
2022/01/12 08:33:00;;;;;;;5.75;3.40;;;;;;;0.82;48.25;96433.66;5085560;28;20035;-78
2022/01/12 08:35:27;;;;;;;5.47;3.28;;;;;;;0.73;48.03;96435.03;5084642;28;20032;-77
2022/01/12 08:37:52;;;;;;;4.90;3.00;;;;;;;0.64;47.17;96435.56;5086750;28;20028;-78
2022/01/12 08:40:20;;;;;;;6.10;3.35;;;;;;;0.82;46.42;96436.28;5087636;28;20521;-78
2022/01/12 08:42:45;;;;;;;5.90;3.63;;;;;;;0.89;46.54;96434.13;5084573;28;20031;-76
2022/01/12 08:45:11;;;;;;;5.95;3.53;;;;;;;0.63;47.02;96431.25;5067564;28;20088;-78
2022/01/12 08:47:36;;;;;;;5.60;3.22;;;;;;;0.47;47.47;96429.47;5084722;28;20035;-77
2022/01/12 08:50:03;;;;;;;9.05;3.40;;;;;;;0.29;47.52;96441.97;5088052;28;20032;-79
2022/01/12 08:52:30;;;;;;;6.38;3.38;;;;;;;0.48;48.75;96442.59;5073492;28;20031;-79
2022/01/12 08:54:55;;;;;;;5.22;3.25;;;;;;;0.31;48.41;96443.59;5091963;28;20028;-77
2022/01/12 08:57:21;;;;;;;5.65;3.80;;;;;;;0.35;47.62;96441.63;5093206;28;20405;-77
2022/01/12 08:59:46;;;;;;;4.88;3.25;;;;;;;0.44;47.95;96443.72;5091319;28;20120;-78
2022/01/12 09:02:14;;;;;;;5.35;3.35;;;;;;;0.17;48.43;96448.78;5073805;28;20028;-79
2022/01/12 09:04:41;;;;;;;5.05;3.33;;;;;;;0.15;48.83;96446.25;5089587;28;20058;-77
2022/01/12 09:07:07;;;;;;;6.40;3.10;;;;;;;0.42;47.91;96442.13;5089584;28;20220;-77
2022/01/12 09:09:32;;;;;;;5.72;3.50;;;;;;;0.53;48.22;96447.63;5054647;28;20102;-77
2022/01/12 09:11:58;;;;;;;5.93;3.53;;;;;;;0.33;47.18;96447.00;5089010;28;20471;-78
2022/01/12 09:14:23;;;;;;;6.72;3.33;;;;;;;0.33;48.33;96444.34;5088039;28;20028;-78
2022/01/12 09:16:54;;;;;;;6.20;3.65;;;;;;;0.61;48.27;96441.91;5089101;28;20078;-78
2022/01/12 09:19:20;;;;;;;5.13;2.83;;;;;;;0.46;46.80;96443.63;5089039;28;20494;-77
2022/01/12 09:21:46;;;;;;;4.85;3.00;;;;;;;0.31;47.91;96435.66;5089384;28;20021;-80
2022/01/12 09:24:11;;;;;;;5.65;3.05;;;;;;;0.29;47.43;96441.97;5087627;28;20417;-76
2022/01/12 09:26:36;;;;;;;6.82;3.47;;;;;;;0.11;48.01;96440.28;5070927;28;20339;-80
2022/01/12 09:29:02;;;;;;;5.07;3.38;;;;;;;-0.01;49.04;96430.44;5087423;28;20473;-78
2022/01/12 09:31:28;;;;;;;6.13;3.10;;;;;;;-0.10;48.93;96436.22;5087778;28;20024;-78
2022/01/12 09:33:54;;;;;;;5.68;2.95;;;;;;;-0.27;49.38;96433.59;5088995;28;20020;-79
2022/01/12 09:36:19;;;;;;;5.20;3.30;;;;;;;-0.19;48.96;96430.53;5087483;28;20046;-78
2022/01/12 09:38:45;;;;;;;5.13;3.10;;;;;;;-0.40;49.40;96430.78;5071043;28;20025;-78
2022/01/12 09:41:10;;;;;;;5.05;3.08;;;;;;;-0.40;49.63;96436.06;5070163;28;20020;-77
2022/01/12 09:43:38;;;;;;;4.30;3.00;;;;;;;-0.51;49.50;96435.78;5088623;28;20024;-78
2022/01/12 09:46:03;;;;;;;4.80;2.78;;;;;;;-0.63;50.75;96437.31;5088854;28;20028;-78
2022/01/12 09:48:33;;;;;;;9.52;3.58;;;;;;;-0.63;50.55;96443.41;5088760;28;20367;-79
2022/01/12 09:51:01;;;;;;;4.72;2.95;;;;;;;-0.72;50.14;96441.28;5088418;28;20020;-78
2022/01/12 09:53:28;;;;;;;7.30;3.30;;;;;;;-0.61;49.89;96435.44;5070701;28;20035;-78
2022/01/12 09:55:54;;;;;;;6.45;3.40;;;;;;;-0.69;49.96;96435.84;5087008;28;20054;-79
2022/01/12 09:58:19;;;;;;;4.90;3.20;;;;;;;-0.59;50.25;96435.34;5087881;28;20065;-79
2022/01/12 10:00:58;;;;;;;6.18;3.55;;;;;;;-0.48;50.12;96438.25;5088434;28;20024;-78
2022/01/12 10:03:25;;;;;;;7.05;3.60;;;;;;;-0.36;50.73;96441.16;5086997;28;20031;-80
2022/01/12 10:05:51;;;;;;;4.95;3.10;;;;;;;-0.40;49.25;96436.06;5088330;28;20023;-78
2022/01/12 10:08:16;;;;;;;5.05;3.30;;;;;;;-0.33;50.05;96435.72;5086383;28;20032;-78
2022/01/12 10:10:43;;;;;;;7.60;3.53;;;;;;;-0.47;49.67;96439.13;5086840;28;20031;-77
2022/01/12 10:13:22;;;;;;;8.30;4.32;;;;;;;-0.48;50.92;96443.53;5087796;28;20501;-78
2022/01/12 10:15:51;;;;;;;6.20;3.63;;;;;;;-0.38;50.43;96441.25;5088126;28;20540;-76
2022/01/12 10:18:18;;;;;;;7.35;3.90;;;;;;;-0.24;50.14;96442.28;5086623;28;20054;-79
2022/01/12 10:20:44;;;;;;;7.57;4.28;;;;;;;-0.17;49.69;96439.22;5086594;28;20039;-77
2022/01/12 10:23:11;;;;;;;6.68;3.45;;;;;;;0.04;50.05;96440.72;5087603;28;20442;-79
2022/01/12 10:25:37;;;;;;;12.50;4.55;;;;;;;0.04;49.75;96438.94;5087402;28;20111;-79
2022/01/12 10:28:13;;;;;;;9.20;4.30;;;;;;;0.07;49.48;96444.03;5087682;28;20036;-77
2022/01/12 10:30:39;;;;;;;5.25;3.13;;;;;;;0.18;49.27;96439.97;5069788;28;20066;-78
2022/01/12 10:33:09;;;;;;;7.95;4.72;;;;;;;0.22;49.77;96433.56;5069447;28;20032;-77
2022/01/12 10:35:37;;;;;;;5.80;3.90;;;;;;;0.27;49.34;96449.13;5086250;28;20027;-78
2022/01/12 10:38:06;;;;;;;6.00;3.20;;;;;;;0.21;48.34;96437.16;5069666;28;20032;-78
2022/01/12 10:40:45;;;;;;;6.30;3.25;;;;;;;0.17;49.22;96440.88;5085982;28;20036;-78
2022/01/12 10:43:33;;;;;;;4.75;3.00;;;;;;;0.09;49.13;96439.53;5069452;28;20509;-78
2022/01/12 10:45:59;;;;;;;5.95;3.25;;;;;;;0.11;49.14;96442.91;5085920;28;20122;-77
2022/01/12 10:48:31;;;;;;;5.72;3.38;;;;;;;0.01;48.22;96432.97;5087152;28;20460;-77
2022/01/12 10:50:57;;;;;;;4.43;3.22;;;;;;;-0.05;48.49;96434.19;5086189;28;20059;-78
2022/01/12 10:53:31;;;;;;;5.55;3.10;;;;;;;-0.04;48.73;96436.75;5087169;28;20028;-78
2022/01/12 10:56:04;;;;;;;5.50;3.50;;;;;;;0.07;49.23;96441.41;5086001;28;20055;-77
2022/01/12 10:58:30;;;;;;;6.10;3.22;;;;;;;0.02;49.77;96438.16;5069066;28;20031;-78
2022/01/12 11:00:56;;;;;;;6.55;3.63;;;;;;;-0.02;49.18;96434.84;5087255;28;20027;-78
2022/01/12 11:03:21;;;;;;;5.55;3.00;;;;;;;-0.04;49.64;96434.09;5068360;28;20353;-80
2022/01/12 11:05:47;;;;;;;4.70;2.92;;;;;;;0.02;49.37;96430.25;5068641;28;20024;-79
2022/01/12 11:08:13;;;;;;;6.03;3.10;;;;;;;0.06;49.01;96431.81;5085803;28;20031;-79
2022/01/12 11:10:38;;;;;;;5.20;3.10;;;;;;;0.08;48.05;96434.34;5051923;28;20028;-78
2022/01/12 11:13:04;;;;;;;4.47;3.03;;;;;;;0.10;48.91;96438.59;5085504;28;20020;-78
2022/01/12 11:15:29;;;;;;;4.82;3.20;;;;;;;-0.24;48.36;96437.00;5068182;28;20020;-78
2022/01/12 11:17:55;;;;;;;5.28;3.20;;;;;;;-0.17;49.63;96441.00;5085720;28;20047;-78
2022/01/12 11:20:24;;;;;;;4.50;2.70;;;;;;;-0.17;49.88;96446.28;5084963;28;20098;-78
2022/01/12 11:23:04;;;;;;;5.70;3.28;;;;;;;-0.11;48.58;96434.53;5085549;28;20036;-78
2022/01/12 11:25:34;;;;;;;4.68;3.15;;;;;;;-0.17;48.81;96433.94;5085302;28;20100;-77
2022/01/12 11:28:18;;;;;;;9.65;3.00;;;;;;;-0.15;49.22;96440.00;5085488;28;20059;-78
2022/01/12 11:30:48;;;;;;;4.43;2.83;;;;;;;-0.08;48.58;96442.28;5084841;28;20483;-78
2022/01/12 11:33:13;;;;;;;4.38;3.25;;;;;;;-0.25;48.79;96433.50;5085316;28;20054;-77
2022/01/12 11:35:42;;;;;;;4.72;2.92;;;;;;;-0.10;48.37;96442.38;5085322;28;20028;-78
2022/01/12 11:38:07;;;;;;;4.95;2.95;;;;;;;0.00;49.04;96440.06;5086362;28;20407;-78
2022/01/12 11:40:37;;;;;;;4.38;2.90;;;;;;;0.08;48.10;96450.19;5085180;28;20467;-78
2022/01/12 11:43:02;;;;;;;7.10;3.50;;;;;;;-0.07;49.03;96442.19;5086585;28;20039;-78
2022/01/12 11:45:28;;;;;;;5.75;3.40;;;;;;;-0.02;48.57;96434.03;5086395;28;20042;-78
2022/01/12 11:47:53;;;;;;;4.53;2.95;;;;;;;0.08;48.49;96444.91;5084784;28;20047;-77
2022/01/12 11:50:19;;;;;;;5.40;2.92;;;;;;;0.02;48.07;96455.81;5085104;28;20020;-79
2022/01/12 11:52:44;;;;;;;3.97;2.13;;;;;;;-0.02;47.73;96449.84;5086086;28;20028;-78
2022/01/12 11:55:11;;;;;;;6.40;3.20;;;;;;;-0.02;47.97;96455.13;5086330;28;20020;-78
2022/01/12 11:57:38;;;;;;;5.50;2.90;;;;;;;0.01;47.80;96454.09;5085982;28;20529;-77
2022/01/12 12:00:12;;;;;;;4.03;3.00;;;;;;;0.04;47.40;96461.81;5084855;28;20036;-78
2022/01/12 12:02:42;;;;;;;10.50;6.97;;;;;;;0.05;47.44;96461.75;5067970;28;20028;-77
2022/01/12 12:05:11;;;;;;;7.75;4.38;;;;;;;0.04;47.90;96460.06;5084866;28;20020;-78
2022/01/12 12:07:53;;;;;;;6.35;3.80;;;;;;;0.09;47.25;96462.44;5068138;28;20103;-77
2022/01/12 12:10:21;;;;;;;8.88;4.13;;;;;;;0.16;47.56;96462.94;5068810;28;20020;-77
2022/01/12 12:12:47;;;;;;;9.68;4.55;;;;;;;0.30;48.16;96460.38;5067547;28;20433;-78
2022/01/12 12:15:12;;;;;;;5.57;3.72;;;;;;;0.23;46.74;96459.84;5067830;28;20494;-77
2022/01/12 12:17:39;;;;;;;11.23;3.35;;;;;;;0.21;46.89;96461.72;5084455;28;20134;-77
2022/01/12 12:20:06;;;;;;;6.32;3.40;;;;;;;0.23;47.09;96459.00;5067883;28;20040;-78
2022/01/12 12:22:32;;;;;;;6.97;3.10;;;;;;;0.28;46.13;96462.22;5084833;28;20038;-78
2022/01/12 12:25:08;;;;;;;4.25;2.65;;;;;;;0.27;46.59;96465.81;5067696;28;20252;-78
2022/01/12 12:27:34;;;;;;;5.00;2.88;;;;;;;0.21;47.09;96453.81;5088174;28;20023;-78
2022/01/12 12:30:00;;;;;;;8.75;2.85;;;;;;;0.32;47.44;96463.75;5089726;28;20031;-78
2022/01/12 12:32:39;;;;;;;3.95;2.33;;;;;;;0.34;46.45;96455.75;5088654;28;20024;-78
2022/01/12 12:35:26;;;;;;;5.22;2.60;;;;;;;0.23;46.18;96462.50;5089626;28;20028;-77
2022/01/12 12:37:54;;;;;;;6.20;2.80;;;;;;;0.18;45.75;96458.44;5084177;28;20053;-80
2022/01/12 12:40:21;;;;;;;4.25;2.88;;;;;;;0.17;46.08;96462.00;5071100;28;20449;-78
2022/01/12 12:42:59;;;;;;;6.82;4.43;;;;;;;0.14;46.17;96460.38;5084464;28;20063;-78
2022/01/12 12:45:41;;;;;;;4.10;2.92;;;;;;;0.11;46.09;96460.56;5071809;28;20082;-77
2022/01/12 12:48:08;;;;;;;4.45;2.92;;;;;;;0.07;45.43;96453.75;5066999;28;20487;-78
2022/01/12 12:50:33;;;;;;;6.03;3.42;;;;;;;0.18;46.69;96451.34;5080316;28;20020;-78
2022/01/12 12:52:59;;;;;;;6.05;3.25;;;;;;;0.17;46.43;96452.28;5077385;28;20094;-78
2022/01/12 12:55:25;;;;;;;5.15;2.88;;;;;;;0.44;46.52;96451.66;5071446;28;20028;-80
2022/01/12 12:57:53;;;;;;;13.20;4.85;;;;;;;0.42;45.67;96455.31;5067190;28;20043;-77
2022/01/12 13:00:20;;;;;;;9.20;4.82;;;;;;;0.59;45.36;96459.63;5088860;28;20040;-78
2022/01/12 13:02:48;;;;;;;12.35;5.55;;;;;;;0.79;45.69;96445.22;5085522;28;20020;-78
2022/01/12 13:05:15;;;;;;;11.43;5.32;;;;;;;0.93;45.33;96457.63;5084312;28;20060;-77
2022/01/12 13:07:42;;;;;;;16.13;5.70;;;;;;;0.95;45.35;96455.72;5085702;28;20520;-78
2022/01/12 13:10:13;;;;;;;10.68;5.20;;;;;;;0.97;44.97;96453.84;5073513;28;20028;-77
2022/01/12 13:12:39;;;;;;;16.20;7.10;;;;;;;0.86;44.04;96459.78;5084401;28;20037;-78
2022/01/12 13:15:07;;;;;;;11.65;5.55;;;;;;;0.80;44.36;96457.50;5080621;28;20025;-78
2022/01/12 13:17:33;;;;;;;7.97;4.35;;;;;;;0.59;45.35;96455.19;5060445;28;20873;-78
2022/01/12 13:22:28;;;;;;;5.18;3.38;;;;;;;0.71;44.30;96463.34;5065668;28;20491;-80
2022/01/12 13:24:53;;;;;;;5.72;3.42;;;;;;;0.87;44.17;96468.56;5065710;28;20071;-78